BAW87G LKPR-LOWW
Flight info
| Callsign | BAW87G |
|---|---|
| Flight time | 0h 34m |
| Altitude | 17000 |
| Route | VOZ4B VOZ DCT LANUX LANUX7W |
| Aircraft | A319/M-SDE3FGIJ1KRWXY/LB1 |
Departure
| Time | 2026-05-07 17:23 |
|---|---|
| Airport | Václav Havel Airport Prague (LKPR) |
Arrival
| Time | 2026-05-07 17:57 |
|---|---|
| Airport | Vienna International Airport (LOWW) |
| Time | Latitude | Longitude | Altitude | Speed | Heading |
|---|---|---|---|---|---|
| 2026-05-07 16:23 | 50.10489 | 14.26476 | 1176 ft | 0 kts | 31° |
| 2026-05-07 16:55 | 50.10488 | 14.26476 | 1176 ft | 0 kts | 31° |
| 2026-05-07 17:06 | 50.10488 | 14.26475 | 1176 ft | 2 kts | 31° |
| 2026-05-07 17:06 | 50.10468 | 14.26452 | 1172 ft | 4 kts | 55° |
| 2026-05-07 17:06 | 50.10460 | 14.26417 | 1173 ft | 4 kts | 115° |
| 2026-05-07 17:06 | 50.10465 | 14.26403 | 1174 ft | 1 kts | 125° |
| 2026-05-07 17:08 | 50.10468 | 14.26398 | 1177 ft | 62 kts | 305° |
| 2026-05-07 17:12 | 50.10472 | 14.26390 | 1177 ft | 1 kts | 305° |
| 2026-05-07 17:13 | 50.10481 | 14.26370 | 1175 ft | 8 kts | 305° |
| 2026-05-07 17:13 | 50.10523 | 14.26277 | 1176 ft | 13 kts | 304° |
| 2026-05-07 17:13 | 50.10542 | 14.26128 | 1176 ft | 16 kts | 258° |
| 2026-05-07 17:13 | 50.10507 | 14.25986 | 1174 ft | 9 kts | 197° |
| 2026-05-07 17:14 | 50.10470 | 14.26042 | 1176 ft | 9 kts | 127° |
| 2026-05-07 17:14 | 50.10430 | 14.26124 | 1173 ft | 10 kts | 127° |
| 2026-05-07 17:14 | 50.10378 | 14.26232 | 1173 ft | 15 kts | 127° |
| 2026-05-07 17:14 | 50.10309 | 14.26378 | 1175 ft | 18 kts | 127° |
| 2026-05-07 17:15 | 50.10226 | 14.26543 | 1176 ft | 20 kts | 128° |
| 2026-05-07 17:15 | 50.10151 | 14.26699 | 1173 ft | 17 kts | 127° |
| 2026-05-07 17:15 | 50.10076 | 14.26857 | 1173 ft | 19 kts | 127° |
| 2026-05-07 17:15 | 50.10001 | 14.27012 | 1175 ft | 17 kts | 127° |
| 2026-05-07 17:16 | 50.09926 | 14.27166 | 1173 ft | 19 kts | 127° |
| 2026-05-07 17:16 | 50.09842 | 14.27330 | 1173 ft | 20 kts | 136° |
| 2026-05-07 17:16 | 50.09743 | 14.27484 | 1176 ft | 21 kts | 135° |
| 2026-05-07 17:16 | 50.09637 | 14.27647 | 1175 ft | 22 kts | 135° |
| 2026-05-07 17:17 | 50.09523 | 14.27823 | 1174 ft | 24 kts | 135° |
| 2026-05-07 17:17 | 50.09409 | 14.27996 | 1176 ft | 19 kts | 135° |
| 2026-05-07 17:17 | 50.09329 | 14.28119 | 1176 ft | 12 kts | 135° |
| 2026-05-07 17:17 | 50.09276 | 14.28202 | 1174 ft | 10 kts | 135° |
| 2026-05-07 17:18 | 50.09223 | 14.28279 | 1176 ft | 11 kts | 143° |
| 2026-05-07 17:18 | 50.09154 | 14.28274 | 1175 ft | 6 kts | 210° |
| 2026-05-07 17:18 | 50.09146 | 14.28264 | 1175 ft | 0 kts | 218° |
| 2026-05-07 17:21 | 50.09140 | 14.28257 | 1176 ft | 2 kts | 218° |
| 2026-05-07 17:21 | 50.09118 | 14.28229 | 1175 ft | 7 kts | 223° |
| 2026-05-07 17:21 | 50.09084 | 14.28129 | 1175 ft | 14 kts | 251° |
| 2026-05-07 17:22 | 50.09098 | 14.28052 | 1175 ft | 0 kts | 309° |
| 2026-05-07 17:22 | 50.09099 | 14.28050 | 1176 ft | 1 kts | 309° |
| 2026-05-07 17:22 | 50.09141 | 14.27969 | 1176 ft | 31 kts | 308° |
| 2026-05-07 17:23 | 50.09406 | 14.27413 | 1174 ft | 95 kts | 306° |
| 2026-05-07 17:23 | 50.09916 | 14.26352 | 1185 ft | 147 kts | 304° |
| 2026-05-07 17:23 | 50.10527 | 14.25096 | 1785 ft | 144 kts | 306° |
| 2026-05-07 17:23 | 50.11148 | 14.23845 | 2380 ft | 151 kts | 309° |
| 2026-05-07 17:24 | 50.11847 | 14.22444 | 2637 ft | 176 kts | 308° |
| 2026-05-07 17:24 | 50.12650 | 14.20834 | 2970 ft | 198 kts | 308° |
| 2026-05-07 17:24 | 50.13535 | 14.19060 | 3321 ft | 218 kts | 307° |
| 2026-05-07 17:24 | 50.14521 | 14.17053 | 3671 ft | 247 kts | 306° |
| 2026-05-07 17:25 | 50.15570 | 14.14827 | 4416 ft | 260 kts | 304° |
| 2026-05-07 17:25 | 50.16648 | 14.12519 | 5360 ft | 266 kts | 304° |
| 2026-05-07 17:25 | 50.17649 | 14.10068 | 6293 ft | 270 kts | 291° |
| 2026-05-07 17:25 | 50.17998 | 14.07245 | 7175 ft | 271 kts | 266° |
| 2026-05-07 17:26 | 50.17543 | 14.04420 | 8086 ft | 271 kts | 241° |
| 2026-05-07 17:26 | 50.16344 | 14.02145 | 9010 ft | 273 kts | 217° |
| 2026-05-07 17:26 | 50.14621 | 14.00897 | 9928 ft | 278 kts | 192° |
| 2026-05-07 17:26 | 50.12684 | 14.00948 | 10757 ft | 284 kts | 167° |
| 2026-05-07 17:27 | 50.11468 | 14.01746 | 11301 ft | 291 kts | 150° |
| 2026-05-07 17:27 | 50.09862 | 14.03833 | 11747 ft | 313 kts | 140° |
| 2026-05-07 17:27 | 50.08225 | 14.06246 | 12017 ft | 335 kts | 139° |
| 2026-05-07 17:27 | 50.06528 | 14.08816 | 12603 ft | 344 kts | 138° |
| 2026-05-07 17:28 | 50.04244 | 14.12301 | 13561 ft | 350 kts | 139° |
| 2026-05-07 17:28 | 50.03059 | 14.14103 | 14014 ft | 353 kts | 139° |
| 2026-05-07 17:28 | 50.01286 | 14.16784 | 14676 ft | 357 kts | 139° |
| 2026-05-07 17:28 | 49.99496 | 14.19472 | 15354 ft | 360 kts | 139° |
| 2026-05-07 17:29 | 49.97709 | 14.22142 | 15957 ft | 361 kts | 140° |
| 2026-05-07 17:29 | 49.95853 | 14.24901 | 16289 ft | 364 kts | 140° |
| 2026-05-07 17:29 | 49.94045 | 14.27583 | 16544 ft | 365 kts | 140° |
| 2026-05-07 17:29 | 49.92186 | 14.30341 | 16806 ft | 366 kts | 140° |
| 2026-05-07 17:30 | 49.90368 | 14.33035 | 16965 ft | 368 kts | 140° |
| 2026-05-07 17:30 | 49.88488 | 14.35816 | 16998 ft | 375 kts | 140° |
| 2026-05-07 17:30 | 49.86592 | 14.38620 | 16996 ft | 377 kts | 140° |
| 2026-05-07 17:30 | 49.84694 | 14.41428 | 16998 ft | 377 kts | 140° |
| 2026-05-07 17:31 | 49.82793 | 14.44235 | 16992 ft | 378 kts | 140° |
| 2026-05-07 17:31 | 49.80890 | 14.47037 | 16989 ft | 378 kts | 140° |
| 2026-05-07 17:31 | 49.78988 | 14.49833 | 16990 ft | 378 kts | 140° |
| 2026-05-07 17:31 | 49.77076 | 14.52648 | 16990 ft | 378 kts | 140° |
| 2026-05-07 17:32 | 49.75200 | 14.55407 | 16986 ft | 378 kts | 140° |
| 2026-05-07 17:32 | 49.73265 | 14.58250 | 16986 ft | 378 kts | 140° |
| 2026-05-07 17:32 | 49.71383 | 14.61014 | 16983 ft | 378 kts | 140° |
| 2026-05-07 17:32 | 49.69444 | 14.63853 | 16985 ft | 378 kts | 140° |
| 2026-05-07 17:33 | 49.67562 | 14.66603 | 16986 ft | 378 kts | 140° |
| 2026-05-07 17:33 | 49.65650 | 14.69396 | 16979 ft | 378 kts | 140° |
| 2026-05-07 17:33 | 49.63734 | 14.72195 | 16983 ft | 378 kts | 140° |
| 2026-05-07 17:33 | 49.61818 | 14.74989 | 16986 ft | 378 kts | 141° |
| 2026-05-07 17:34 | 49.59908 | 14.77772 | 16984 ft | 378 kts | 141° |
| 2026-05-07 17:34 | 49.57996 | 14.80552 | 16988 ft | 378 kts | 141° |
| 2026-05-07 17:34 | 49.56082 | 14.83332 | 16989 ft | 378 kts | 141° |
| 2026-05-07 17:34 | 49.54171 | 14.86105 | 16990 ft | 378 kts | 141° |
| 2026-05-07 17:35 | 49.52176 | 14.88714 | 16979 ft | 375 kts | 147° |
| 2026-05-07 17:35 | 49.50100 | 14.91134 | 16979 ft | 375 kts | 147° |
| 2026-05-07 17:35 | 49.48022 | 14.93555 | 16980 ft | 375 kts | 147° |
| 2026-05-07 17:35 | 49.45964 | 14.95952 | 16976 ft | 373 kts | 147° |
| 2026-05-07 17:36 | 49.43879 | 14.98365 | 16982 ft | 372 kts | 147° |
| 2026-05-07 17:36 | 49.41810 | 15.00763 | 16975 ft | 373 kts | 147° |
| 2026-05-07 17:36 | 49.39736 | 15.03180 | 16978 ft | 373 kts | 147° |
| 2026-05-07 17:36 | 49.37667 | 15.05593 | 16983 ft | 374 kts | 147° |
| 2026-05-07 17:37 | 49.35594 | 15.08003 | 16980 ft | 374 kts | 147° |
| 2026-05-07 17:37 | 49.33521 | 15.10405 | 16978 ft | 374 kts | 147° |
| 2026-05-07 17:37 | 49.31466 | 15.12783 | 16978 ft | 374 kts | 147° |
| 2026-05-07 17:37 | 49.29385 | 15.15186 | 16975 ft | 374 kts | 147° |
| 2026-05-07 17:38 | 49.27308 | 15.17579 | 16975 ft | 374 kts | 147° |
| 2026-05-07 17:38 | 49.25224 | 15.19979 | 16975 ft | 374 kts | 147° |
| 2026-05-07 17:38 | 49.23152 | 15.22367 | 16976 ft | 374 kts | 147° |
| 2026-05-07 17:38 | 49.21066 | 15.24773 | 16972 ft | 375 kts | 147° |
| 2026-05-07 17:39 | 49.18985 | 15.27173 | 16971 ft | 375 kts | 147° |
| 2026-05-07 17:39 | 49.16901 | 15.29577 | 16970 ft | 375 kts | 147° |
| 2026-05-07 17:39 | 49.14821 | 15.31973 | 16972 ft | 375 kts | 147° |
| 2026-05-07 17:39 | 49.12739 | 15.34363 | 16967 ft | 375 kts | 147° |
| 2026-05-07 17:40 | 49.10649 | 15.36750 | 16965 ft | 375 kts | 147° |
| 2026-05-07 17:40 | 49.08552 | 15.39139 | 16966 ft | 375 kts | 147° |
| 2026-05-07 17:40 | 49.06464 | 15.41520 | 16966 ft | 375 kts | 147° |
| 2026-05-07 17:40 | 49.04382 | 15.43899 | 16964 ft | 375 kts | 147° |
| 2026-05-07 17:41 | 49.02292 | 15.46286 | 16966 ft | 376 kts | 147° |
| 2026-05-07 17:41 | 49.00194 | 15.48677 | 16964 ft | 376 kts | 147° |
| 2026-05-07 17:41 | 48.98101 | 15.51055 | 16963 ft | 376 kts | 147° |
| 2026-05-07 17:41 | 48.96005 | 15.53433 | 16963 ft | 373 kts | 147° |
| 2026-05-07 17:42 | 48.93937 | 15.55775 | 16975 ft | 368 kts | 147° |
| 2026-05-07 17:42 | 48.91890 | 15.58091 | 16970 ft | 367 kts | 147° |
| 2026-05-07 17:42 | 48.89836 | 15.60416 | 16972 ft | 367 kts | 147° |
| 2026-05-07 17:42 | 48.87818 | 15.62714 | 16974 ft | 367 kts | 146° |
| 2026-05-07 17:43 | 48.85794 | 15.65095 | 16967 ft | 368 kts | 145° |
| 2026-05-07 17:43 | 48.83799 | 15.67496 | 16956 ft | 363 kts | 145° |
| 2026-05-07 17:43 | 48.81844 | 15.69873 | 16594 ft | 356 kts | 144° |
| 2026-05-07 17:43 | 48.79920 | 15.72212 | 16105 ft | 353 kts | 144° |
| 2026-05-07 17:44 | 48.78011 | 15.74521 | 15597 ft | 350 kts | 145° |
| 2026-05-07 17:44 | 48.76115 | 15.76796 | 15088 ft | 347 kts | 145° |
| 2026-05-07 17:44 | 48.74222 | 15.79057 | 14592 ft | 345 kts | 145° |
| 2026-05-07 17:44 | 48.72340 | 15.81296 | 14101 ft | 342 kts | 145° |
| 2026-05-07 17:45 | 48.70471 | 15.83517 | 13595 ft | 340 kts | 145° |
| 2026-05-07 17:45 | 48.68619 | 15.85718 | 13062 ft | 338 kts | 145° |
| 2026-05-07 17:45 | 48.66777 | 15.87908 | 12542 ft | 336 kts | 144° |
| 2026-05-07 17:45 | 48.64942 | 15.90086 | 12137 ft | 334 kts | 144° |
| 2026-05-07 17:46 | 48.63112 | 15.92253 | 11889 ft | 335 kts | 144° |
| 2026-05-07 17:46 | 48.61278 | 15.94426 | 11634 ft | 334 kts | 144° |
| 2026-05-07 17:46 | 48.59451 | 15.96591 | 11380 ft | 333 kts | 144° |
| 2026-05-07 17:46 | 48.57642 | 15.98733 | 11134 ft | 332 kts | 144° |
| 2026-05-07 17:47 | 48.55817 | 16.00891 | 10884 ft | 331 kts | 144° |
| 2026-05-07 17:47 | 48.54006 | 16.03031 | 10637 ft | 330 kts | 144° |
| 2026-05-07 17:47 | 48.52202 | 16.05156 | 10389 ft | 328 kts | 144° |
| 2026-05-07 17:47 | 48.50406 | 16.07271 | 10152 ft | 327 kts | 144° |
| 2026-05-07 17:48 | 48.48599 | 16.09349 | 9909 ft | 323 kts | 148° |
| 2026-05-07 17:48 | 48.46703 | 16.10899 | 9780 ft | 307 kts | 159° |
| 2026-05-07 17:48 | 48.44781 | 16.12152 | 9641 ft | 296 kts | 159° |
| 2026-05-07 17:48 | 48.42915 | 16.13386 | 9513 ft | 290 kts | 159° |
| 2026-05-07 17:49 | 48.41082 | 16.14598 | 9337 ft | 287 kts | 159° |
| 2026-05-07 17:49 | 48.39250 | 16.15807 | 9207 ft | 287 kts | 159° |
| 2026-05-07 17:49 | 48.37420 | 16.17010 | 9078 ft | 287 kts | 159° |
| 2026-05-07 17:49 | 48.35573 | 16.18223 | 8749 ft | 285 kts | 159° |
| 2026-05-07 17:50 | 48.33752 | 16.19421 | 8384 ft | 284 kts | 159° |
| 2026-05-07 17:50 | 48.32072 | 16.20883 | 8045 ft | 286 kts | 140° |
| 2026-05-07 17:50 | 48.30870 | 16.23267 | 7686 ft | 288 kts | 115° |
| 2026-05-07 17:50 | 48.30440 | 16.25952 | 7363 ft | 288 kts | 91° |
| 2026-05-07 17:51 | 48.30710 | 16.28820 | 7022 ft | 286 kts | 75° |
| 2026-05-07 17:51 | 48.31179 | 16.31704 | 6859 ft | 279 kts | 76° |
| 2026-05-07 17:51 | 48.31625 | 16.34503 | 6740 ft | 270 kts | 76° |
| 2026-05-07 17:51 | 48.32050 | 16.37208 | 6616 ft | 262 kts | 76° |
| 2026-05-07 17:52 | 48.32463 | 16.39834 | 6492 ft | 254 kts | 75° |
| 2026-05-07 17:52 | 48.32862 | 16.42370 | 6369 ft | 245 kts | 76° |
| 2026-05-07 17:52 | 48.33225 | 16.44822 | 6195 ft | 238 kts | 82° |
| 2026-05-07 17:52 | 48.33008 | 16.47229 | 5892 ft | 234 kts | 116° |
| 2026-05-07 17:53 | 48.31993 | 16.49070 | 5571 ft | 228 kts | 150° |
| 2026-05-07 17:53 | 48.30564 | 16.49924 | 5266 ft | 224 kts | 168° |
| 2026-05-07 17:53 | 48.29071 | 16.50553 | 4963 ft | 223 kts | 168° |
| 2026-05-07 17:53 | 48.27584 | 16.51186 | 4581 ft | 221 kts | 167° |
| 2026-05-07 17:54 | 48.26111 | 16.51813 | 4179 ft | 219 kts | 168° |
| 2026-05-07 17:54 | 48.24657 | 16.52432 | 3683 ft | 218 kts | 167° |
| 2026-05-07 17:54 | 48.23176 | 16.53061 | 3076 ft | 222 kts | 167° |
| 2026-05-07 17:54 | 48.21713 | 16.53684 | 2675 ft | 215 kts | 166° |
| 2026-05-07 17:55 | 48.20302 | 16.54285 | 2372 ft | 206 kts | 166° |
| 2026-05-07 17:55 | 48.18960 | 16.54855 | 2129 ft | 193 kts | 166° |
| 2026-05-07 17:55 | 48.17712 | 16.55385 | 1844 ft | 179 kts | 166° |
| 2026-05-07 17:55 | 48.16583 | 16.55865 | 1606 ft | 160 kts | 166° |
| 2026-05-07 17:56 | 48.15593 | 16.56286 | 1388 ft | 138 kts | 167° |
| 2026-05-07 17:56 | 48.14692 | 16.56668 | 1196 ft | 131 kts | 168° |
| 2026-05-07 17:56 | 48.13825 | 16.57034 | 1024 ft | 127 kts | 171° |
| 2026-05-07 17:56 | 48.12985 | 16.57391 | 848 ft | 125 kts | 169° |
| 2026-05-07 17:57 | 48.12156 | 16.57747 | 700 ft | 122 kts | 171° |
| 2026-05-07 17:57 | 48.11615 | 16.57976 | 623 ft | 120 kts | 171° |
| 2026-05-07 17:57 | 48.10756 | 16.58329 | 618 ft | 73 kts | 163° |
| 2026-05-07 17:57 | 48.10384 | 16.58472 | 616 ft | 46 kts | 177° |
| 2026-05-07 17:58 | 48.10145 | 16.58395 | 609 ft | 17 kts | 217° |
| 2026-05-07 17:58 | 48.10181 | 16.58296 | 609 ft | 14 kts | 346° |
| 2026-05-07 17:58 | 48.10280 | 16.58260 | 609 ft | 16 kts | 347° |
| 2026-05-07 17:58 | 48.10393 | 16.58208 | 609 ft | 18 kts | 342° |
| 2026-05-07 17:59 | 48.10520 | 16.58151 | 614 ft | 20 kts | 343° |
| 2026-05-07 17:59 | 48.10658 | 16.58094 | 617 ft | 22 kts | 345° |
| 2026-05-07 17:59 | 48.10809 | 16.58033 | 611 ft | 23 kts | 345° |
| 2026-05-07 17:59 | 48.10953 | 16.57939 | 609 ft | 22 kts | 313° |
| 2026-05-07 18:00 | 48.11053 | 16.57747 | 612 ft | 25 kts | 294° |
| 2026-05-07 18:00 | 48.11122 | 16.57538 | 613 ft | 21 kts | 296° |
| 2026-05-07 18:00 | 48.11193 | 16.57325 | 614 ft | 24 kts | 296° |
| 2026-05-07 18:00 | 48.11273 | 16.57080 | 609 ft | 28 kts | 295° |
| 2026-05-07 18:01 | 48.11362 | 16.56802 | 614 ft | 32 kts | 296° |
| 2026-05-07 18:01 | 48.11447 | 16.56545 | 619 ft | 25 kts | 296° |
| 2026-05-07 18:01 | 48.11528 | 16.56295 | 610 ft | 28 kts | 295° |
| 2026-05-07 18:01 | 48.11600 | 16.56071 | 612 ft | 23 kts | 296° |
| 2026-05-07 18:02 | 48.11730 | 16.55673 | 610 ft | 24 kts | 297° |
| 2026-05-07 18:02 | 48.11792 | 16.55485 | 614 ft | 19 kts | 292° |
| 2026-05-07 18:02 | 48.11843 | 16.55391 | 612 ft | 2 kts | 19° |
| 2026-05-07 18:03 | 48.11857 | 16.55401 | 612 ft | 3 kts | 24° |
| 2026-05-07 18:03 | 48.11881 | 16.55417 | 615 ft | 5 kts | 24° |
| 2026-05-07 18:03 | 48.11919 | 16.55442 | 609 ft | 8 kts | 23° |
| 2026-05-07 18:03 | 48.11977 | 16.55482 | 609 ft | 11 kts | 25° |
| 2026-05-07 18:04 | 48.12048 | 16.55531 | 609 ft | 9 kts | 25° |
| 2026-05-07 18:04 | 48.12099 | 16.55564 | 609 ft | 4 kts | 354° |
| 2026-05-07 18:04 | 48.12114 | 16.55523 | 613 ft | 4 kts | 297° |
| 2026-05-07 18:04 | 48.12121 | 16.55503 | 620 ft | 0 kts | 296° |